Time;durP1;ratioP1;P1;durP2;ratioP2;P2;SDS_P1;SDS_P2;PMS_P1;PMS_P2;Temp;Humidity;BMP_temperature;BMP_pressure;BME280_temperature;BME280_humidity;BME280_pressure;Samples;Min_cycle;Max_cycle;Signal;HPM_P1;HPM_P2
2022/01/27 00:05:08;;;;;;;29.67;14.40;;;;;;;-0.78;100.00;99737.03;10463182;28;20102;-80
2022/01/27 00:15:35;;;;;;;25.13;12.55;;;;;;;-0.76;100.00;99712.06;10477448;28;20032;-81
2022/01/27 00:20:36;;;;;;;25.10;12.77;;;;;;;-0.90;100.00;99706.09;10486491;28;20171;-78
2022/01/27 00:25:38;;;;;;;29.67;13.80;;;;;;;-0.77;100.00;99707.03;10477811;28;20080;-80
2022/01/27 00:30:40;;;;;;;34.75;15.90;;;;;;;-0.83;100.00;99711.31;10453154;28;20083;-79
2022/01/27 00:35:42;;;;;;;31.48;14.57;;;;;;;-0.83;100.00;99713.13;10472046;28;20055;-81
2022/01/27 00:40:44;;;;;;;30.48;14.43;;;;;;;-0.75;100.00;99710.25;10414454;28;20133;-80
2022/01/27 00:45:46;;;;;;;26.13;12.98;;;;;;;-0.83;100.00;99707.88;10459717;28;20383;-78
2022/01/27 00:50:51;;;;;;;30.50;14.52;;;;;;;-0.86;100.00;99714.38;10427198;28;20102;-79
2022/01/27 00:55:57;;;;;;;31.10;14.50;;;;;;;-0.89;100.00;99707.72;10401202;28;20048;-80
2022/01/27 01:01:03;;;;;;;35.50;16.85;;;;;;;-1.07;100.00;99694.47;10400271;28;20049;-79
2022/01/27 01:37:04;;;;;;;31.02;14.50;;;;;;;-0.99;100.00;99690.75;10461678;28;20095;-79
2022/01/27 01:42:13;;;;;;;27.88;13.57;;;;;;;-0.91;100.00;99698.41;10443346;28;20053;-79
2022/01/27 01:47:15;;;;;;;31.15;15.02;;;;;;;-0.98;100.00;99692.38;10447466;28;20037;-77
2022/01/27 01:52:16;;;;;;;34.30;15.95;;;;;;;-1.18;100.00;99681.97;10443286;28;20377;-79
2022/01/27 01:57:18;;;;;;;37.13;16.88;;;;;;;-1.05;100.00;99687.13;10459870;28;20305;-81
2022/01/27 02:02:25;;;;;;;37.92;17.23;;;;;;;-1.14;100.00;99680.50;10462818;28;20056;-85
2022/01/27 02:18:49;;;;;;;32.05;14.70;;;;;;;-1.08;100.00;99684.94;10474088;28;20061;-78
2022/01/27 02:23:50;;;;;;;35.42;16.30;;;;;;;-1.04;100.00;99680.84;10499010;28;20024;-80
2022/01/27 02:28:50;;;;;;;34.90;15.30;;;;;;;-1.05;100.00;99687.13;10459343;28;20154;-80
2022/01/27 02:34:14;;;;;;;34.58;16.45;;;;;;;-1.04;100.00;99672.94;10485824;28;20045;-79
2022/01/27 02:39:15;;;;;;;33.53;15.07;;;;;;;-1.20;100.00;99653.19;10478220;28;20037;-78
2022/01/27 02:44:37;;;;;;;39.15;17.50;;;;;;;-1.25;100.00;99644.31;10450887;28;20056;-78
2022/01/27 02:49:37;;;;;;;38.72;16.95;;;;;;;-1.12;100.00;99636.31;10433860;28;20091;-79
2022/01/27 02:54:39;;;;;;;34.38;15.30;;;;;;;-1.19;100.00;99641.66;10433900;28;20053;-78
2022/01/27 02:59:40;;;;;;;35.78;16.20;;;;;;;-1.21;100.00;99635.75;10435901;28;20053;-78
2022/01/27 03:04:41;;;;;;;32.30;15.05;;;;;;;-1.12;100.00;99632.88;10411850;28;20488;-77
2022/01/27 03:09:44;;;;;;;32.38;14.77;;;;;;;-1.18;100.00;99635.34;10442990;28;20058;-83
2022/01/27 03:14:45;;;;;;;33.88;14.95;;;;;;;-1.20;100.00;99629.47;10456736;28;20119;-79
2022/01/27 03:19:46;;;;;;;34.65;15.85;;;;;;;-1.19;100.00;99630.28;10455754;28;20132;-76
2022/01/27 03:24:48;;;;;;;28.88;13.88;;;;;;;-1.24;100.00;99625.66;10428298;28;20041;-78
2022/01/27 03:29:48;;;;;;;31.00;14.65;;;;;;;-1.30;100.00;99620.44;10450399;28;20045;-76
2022/01/27 03:34:49;;;;;;;30.95;14.40;;;;;;;-1.24;100.00;99627.50;10455796;28;20075;-80
2022/01/27 03:39:49;;;;;;;32.33;13.85;;;;;;;-1.26;100.00;99634.81;10464180;28;20081;-80
2022/01/27 03:44:50;;;;;;;26.23;13.00;;;;;;;-1.24;100.00;99628.28;10455720;28;20037;-82
2022/01/27 03:49:51;;;;;;;34.50;14.95;;;;;;;-1.30;100.00;99609.91;10447756;28;20449;-78
2022/01/27 03:54:52;;;;;;;29.13;12.68;;;;;;;-1.31;100.00;99593.28;10447431;28;20358;-77
2022/01/27 03:59:52;;;;;;;27.95;12.60;;;;;;;-1.38;100.00;99586.44;10452500;28;20136;-77
2022/01/27 04:04:53;;;;;;;32.65;14.38;;;;;;;-1.42;100.00;99583.44;10454145;28;20053;-78
2022/01/27 04:09:54;;;;;;;27.65;12.93;;;;;;;-1.53;100.00;99573.59;10474603;28;20151;-79
2022/01/27 04:14:55;;;;;;;27.55;13.02;;;;;;;-1.60;100.00;99576.25;10476129;28;20068;-78
2022/01/27 04:19:57;;;;;;;23.95;11.93;;;;;;;-1.50;100.00;99562.63;10466082;28;20057;-78
2022/01/27 04:24:58;;;;;;;28.05;12.70;;;;;;;-1.34;100.00;99571.84;10441817;28;20048;-78
2022/01/27 04:29:59;;;;;;;27.83;13.93;;;;;;;-1.46;100.00;99579.63;10488352;28;20443;-78
2022/01/27 04:35:04;;;;;;;25.85;12.30;;;;;;;-1.37;100.00;99574.88;10501810;28;20057;-79
2022/01/27 04:40:12;;;;;;;28.95;13.07;;;;;;;-1.55;100.00;99562.47;10451369;28;20049;-78
2022/01/27 04:45:14;;;;;;;25.92;12.30;;;;;;;-1.67;100.00;99548.38;10424279;28;20091;-79
2022/01/27 04:50:15;;;;;;;24.98;13.38;;;;;;;-1.67;100.00;99538.63;10445642;28;20054;-79
2022/01/27 04:55:19;;;;;;;26.88;12.15;;;;;;;-1.60;100.00;99535.97;10429122;28;20057;-78
2022/01/27 05:00:22;;;;;;;25.15;12.48;;;;;;;-1.58;100.00;99534.72;10444408;28;20113;-78
2022/01/27 05:05:24;;;;;;;28.77;12.95;;;;;;;-1.60;100.00;99523.63;10435313;28;20938;-78
2022/01/27 05:10:31;;;;;;;29.73;12.90;;;;;;;-1.75;100.00;99507.31;10437882;28;20097;-80
2022/01/27 05:15:34;;;;;;;25.48;13.52;;;;;;;-1.75;100.00;99518.63;10437765;28;20048;-78
2022/01/27 05:20:34;;;;;;;31.77;14.02;;;;;;;-1.82;100.00;99538.94;10472247;28;20045;-79
2022/01/27 05:25:36;;;;;;;34.05;14.45;;;;;;;-1.72;100.00;99539.28;10460059;28;20048;-81
2022/01/27 05:30:36;;;;;;;32.38;14.65;;;;;;;-1.64;100.00;99547.97;10492568;28;20056;-84
2022/01/27 05:35:37;;;;;;;23.73;12.95;;;;;;;-1.58;100.00;99542.63;10466956;28;20579;-79
2022/01/27 05:40:37;;;;;;;24.08;11.50;;;;;;;-1.78;100.00;99541.94;10453707;28;20123;-79
2022/01/27 05:45:38;;;;;;;27.08;12.45;;;;;;;-1.79;100.00;99535.88;10451826;28;20049;-78
2022/01/27 05:50:39;;;;;;;29.35;13.75;;;;;;;-1.79;100.00;99537.72;10474216;28;20069;-80
2022/01/27 05:55:40;;;;;;;30.52;13.63;;;;;;;-1.83;100.00;99542.59;10447875;28;20072;-78
2022/01/27 06:00:40;;;;;;;29.73;13.15;;;;;;;-1.76;100.00;99543.34;10433474;28;20110;-78
2022/01/27 06:05:41;;;;;;;26.27;14.05;;;;;;;-1.76;100.00;99537.28;10429200;28;20052;-80
2022/01/27 06:10:41;;;;;;;24.17;12.82;;;;;;;-1.90;100.00;99533.13;10425453;28;20046;-79
2022/01/27 06:15:42;;;;;;;27.45;13.65;;;;;;;-1.80;100.00;99546.63;10447965;28;20040;-79
2022/01/27 06:20:44;;;;;;;30.75;13.55;;;;;;;-1.79;100.00;99564.84;10429379;28;20056;-80
2022/01/27 06:25:48;;;;;;;28.25;13.43;;;;;;;-1.83;100.00;99554.91;10417969;28;20127;-83
2022/01/27 06:30:48;;;;;;;28.38;14.50;;;;;;;-1.86;100.00;99555.34;10452537;28;20080;-79
2022/01/27 06:35:49;;;;;;;26.80;14.18;;;;;;;-1.79;100.00;99551.69;10412074;28;20071;-79
2022/01/27 06:40:50;;;;;;;28.52;13.30;;;;;;;-1.95;100.00;99544.28;10454773;28;20052;-79
2022/01/27 06:45:54;;;;;;;30.98;15.70;;;;;;;-1.90;100.00;99569.97;10467860;28;20056;-78
2022/01/27 06:50:56;;;;;;;33.95;15.02;;;;;;;-1.79;100.00;99546.41;10473986;28;20041;-79
2022/01/27 06:55:57;;;;;;;31.63;14.63;;;;;;;-1.84;100.00;99535.69;10458264;28;20128;-81
2022/01/27 07:00:58;;;;;;;30.88;14.73;;;;;;;-1.97;100.00;99535.78;10439487;28;20041;-79
2022/01/27 07:06:02;;;;;;;32.22;15.73;;;;;;;-1.85;100.00;99541.19;10446238;28;20136;-80
2022/01/27 07:11:03;;;;;;;30.10;13.40;;;;;;;-1.75;100.00;99517.84;10447692;28;20454;-79
2022/01/27 07:16:04;;;;;;;32.67;15.65;;;;;;;-1.86;100.00;99521.16;10461635;28;20060;-79
2022/01/27 07:21:05;;;;;;;34.58;15.60;;;;;;;-1.78;100.00;99541.94;10428685;28;20053;-79
2022/01/27 07:26:07;;;;;;;35.35;15.10;;;;;;;-1.76;100.00;99551.25;10453102;28;20752;-80
2022/01/27 07:31:08;;;;;;;41.60;17.43;;;;;;;-1.77;100.00;99547.00;10473709;28;20041;-80
2022/01/27 07:36:09;;;;;;;37.03;15.80;;;;;;;-1.76;100.00;99532.81;10455988;28;20197;-80
2022/01/27 07:41:13;;;;;;;37.08;15.93;;;;;;;-2.07;100.00;99532.81;10456034;28;20118;-79
2022/01/27 07:46:14;;;;;;;31.30;14.75;;;;;;;-1.99;100.00;99545.72;10476800;28;20057;-79
2022/01/27 07:51:16;;;;;;;41.83;16.00;;;;;;;-1.99;100.00;99542.28;10430123;28;20052;-80
2022/01/27 07:56:19;;;;;;;33.00;14.20;;;;;;;-1.95;100.00;99553.97;10447765;28;20149;-82
2022/01/27 08:01:19;;;;;;;34.67;15.88;;;;;;;-1.97;100.00;99556.03;10463342;28;20053;-79
2022/01/27 08:06:20;;;;;;;26.30;12.50;;;;;;;-1.87;100.00;99556.38;10471656;28;20507;-79
2022/01/27 08:11:21;;;;;;;29.05;12.38;;;;;;;-1.95;100.00;99552.16;10435347;28;20075;-79
2022/01/27 08:16:25;;;;;;;30.63;14.23;;;;;;;-1.92;100.00;99549.13;10448848;28;20080;-80
2022/01/27 08:21:25;;;;;;;;;;;;;;;-1.93;100.00;99547.50;10448228;28;20053;-78
2022/01/27 08:26:43;;;;;;;23.05;10.75;;;;;;;-1.87;100.00;99540.59;10424259;28;20280;-78
2022/01/27 08:32:01;;;;;;;22.73;10.95;;;;;;;-1.89;100.00;99532.91;10466694;28;20096;-81
2022/01/27 08:37:10;;;;;;;23.55;10.82;;;;;;;-1.78;100.00;99520.91;10463420;28;20241;-79
2022/01/27 08:42:12;;;;;;;27.48;11.93;;;;;;;-1.89;100.00;99511.88;10469425;28;20127;-80
2022/01/27 08:47:15;;;;;;;25.58;11.57;;;;;;;-1.82;100.00;99514.47;10466062;28;20037;-80
2022/01/27 08:52:15;;;;;;;25.57;11.93;;;;;;;-1.87;100.00;99516.91;10485111;28;20080;-78
2022/01/27 08:57:16;;;;;;;22.23;12.18;;;;;;;-1.76;100.00;99517.03;10483489;28;20049;-78
2022/01/27 09:02:16;;;;;;;23.48;11.10;;;;;;;-1.76;100.00;99511.78;10482013;28;20068;-80
2022/01/27 09:07:17;;;;;;;24.05;12.23;;;;;;;-1.62;100.00;99514.31;10494223;28;20049;-79
2022/01/27 09:12:18;;;;;;;29.27;12.82;;;;;;;-1.47;100.00;99520.88;10502794;28;20053;-79
2022/01/27 09:17:18;;;;;;;26.35;11.68;;;;;;;-1.58;100.00;99512.88;10492633;28;20075;-82
2022/01/27 09:22:19;;;;;;;30.10;13.38;;;;;;;-1.49;100.00;99504.50;10463973;28;20051;-81
2022/01/27 09:27:23;;;;;;;31.13;12.93;;;;;;;-1.52;100.00;99504.13;10443188;28;20053;-81
2022/01/27 09:32:26;;;;;;;26.38;12.95;;;;;;;-1.44;100.00;99502.03;10451387;28;20105;-79
2022/01/27 09:37:39;;;;;;;24.50;11.38;;;;;;;-1.47;100.00;99504.28;10457482;28;20048;-79
2022/01/27 09:42:49;;;;;;;29.08;12.77;;;;;;;-1.46;100.00;99506.72;10488874;28;20068;-80
2022/01/27 09:47:56;;;;;;;24.08;11.75;;;;;;;-1.42;100.00;99512.34;10487846;28;20109;-79
2022/01/27 09:52:56;;;;;;;25.83;11.27;;;;;;;-1.40;100.00;99514.75;10442599;28;20056;-79
2022/01/27 09:57:58;;;;;;;24.23;12.00;;;;;;;-1.18;100.00;99518.66;10446380;28;20128;-80
2022/01/27 10:03:08;;;;;;;26.65;11.90;;;;;;;-1.34;100.00;99509.47;10442457;28;20053;-79
2022/01/27 10:08:16;;;;;;;25.98;11.98;;;;;;;-1.11;100.00;99505.41;10447467;28;20106;-81
2022/01/27 10:13:40;;;;;;;23.13;11.35;;;;;;;-1.03;100.00;99494.59;10430989;28;20749;-79
2022/01/27 10:18:41;;;;;;;21.98;11.52;;;;;;;-1.20;100.00;99499.59;10474443;28;20033;-77
2022/01/27 10:23:44;;;;;;;26.50;11.15;;;;;;;-1.32;100.00;99494.25;10437853;28;20045;-82
2022/01/27 10:29:08;;;;;;;26.38;12.20;;;;;;;-1.18;100.00;99469.41;10494537;28;20033;-82
2022/01/27 10:34:15;;;;;;;25.10;11.80;;;;;;;-1.01;100.00;99474.09;10479109;28;20059;-82
2022/01/27 10:39:24;;;;;;;23.45;11.18;;;;;;;-1.19;100.00;99459.06;10468210;28;20089;-80
2022/01/27 10:44:33;;;;;;;22.15;11.52;;;;;;;-1.21;100.00;99455.84;10434770;28;20060;-80
2022/01/27 10:49:38;;;;;;;26.63;11.50;;;;;;;-1.01;100.00;99458.28;10417222;28;21071;-79
2022/01/27 10:54:42;;;;;;;24.70;11.38;;;;;;;-0.98;100.00;99452.59;10460798;28;20025;-82
2022/01/27 10:59:44;;;;;;;31.52;14.93;;;;;;;-0.93;100.00;99448.25;10476264;28;20048;-83
2022/01/27 11:04:45;;;;;;;26.58;10.25;;;;;;;-1.01;100.00;99443.28;10462201;28;20503;-81
2022/01/27 11:09:46;;;;;;;21.02;10.73;;;;;;;-0.89;100.00;99440.75;10436875;28;20040;-79
2022/01/27 11:14:49;;;;;;;24.15;10.10;;;;;;;-0.94;100.00;99430.03;10459103;28;20076;-81
2022/01/27 11:20:06;;;;;;;20.15;9.93;;;;;;;-0.78;100.00;99424.19;10447938;28;20057;-83
2022/01/27 11:30:53;;;;;;;21.45;10.07;;;;;;;-0.71;100.00;99421.47;10380980;28;20092;-80
2022/01/27 11:36:15;;;;;;;21.45;9.10;;;;;;;-0.69;100.00;99409.69;10352733;28;20114;-81
2022/01/27 11:41:55;;;;;;;23.33;9.43;;;;;;;-0.65;100.00;99404.75;10324890;28;20062;-81
2022/01/27 11:47:17;;;;;;;19.30;8.88;;;;;;;-0.74;100.00;99395.53;10328742;28;20086;-82
2022/01/27 11:52:31;;;;;;;21.77;9.93;;;;;;;-0.59;100.00;99391.50;10319185;28;20058;-80
2022/01/27 11:57:44;;;;;;;19.48;8.77;;;;;;;-0.48;100.00;99379.38;10450014;28;20385;-81
2022/01/27 12:03:07;;;;;;;19.80;9.07;;;;;;;-0.53;100.00;99379.28;10418041;28;20065;-81
2022/01/27 12:08:17;;;;;;;24.40;9.65;;;;;;;-0.45;100.00;99378.16;10484956;28;20060;-82
2022/01/27 12:13:43;;;;;;;20.85;8.70;;;;;;;-0.45;100.00;99365.78;10478139;28;20048;-81
2022/01/27 12:19:12;;;;;;;20.58;8.85;;;;;;;-0.33;100.00;99363.97;10490106;28;20113;-80
2022/01/27 12:24:21;;;;;;;21.77;9.68;;;;;;;-0.17;100.00;99353.81;10445719;23;20073;-81
2022/01/27 12:29:23;;;;;;;17.52;8.85;;;;;;;-0.28;100.00;99350.09;10383534;28;20049;-81
2022/01/27 12:34:25;;;;;;;18.90;8.73;;;;;;;-0.26;100.00;99323.50;10428937;28;20068;-82
2022/01/27 12:39:42;;;;;;;14.02;7.28;;;;;;;-0.24;100.00;99327.53;10431933;28;20049;-81
2022/01/27 12:45:05;;;;;;;18.30;8.80;;;;;;;-0.12;100.00;99303.78;10412357;28;20065;-83
2022/01/27 12:50:09;;;;;;;16.45;8.00;;;;;;;-0.04;100.00;99295.53;10405494;28;20087;-81
2022/01/27 12:55:25;;;;;;;15.57;7.53;;;;;;;-0.06;100.00;99292.34;10417836;28;20053;-82
2022/01/27 13:00:35;;;;;;;17.33;7.85;;;;;;;-0.19;100.00;99290.69;10409920;28;20972;-81
2022/01/27 13:05:37;;;;;;;17.33;7.72;;;;;;;0.02;100.00;99283.28;10392887;28;20834;-80
2022/01/27 13:10:49;;;;;;;14.65;6.88;;;;;;;0.16;100.00;99276.72;10447315;28;20045;-82
2022/01/27 13:16:03;;;;;;;13.90;7.75;;;;;;;0.25;100.00;99262.94;10385255;28;20053;-81
2022/01/27 13:21:17;;;;;;;18.90;8.00;;;;;;;0.38;100.00;99263.75;10422974;28;20131;-82
2022/01/27 13:26:23;;;;;;;15.80;8.00;;;;;;;0.30;100.00;99259.63;10379113;28;20046;-81
2022/01/27 13:31:33;;;;;;;17.92;8.25;;;;;;;0.37;100.00;99262.94;10370668;28;20038;-84
2022/01/27 13:37:23;;;;;;;15.98;8.30;;;;;;;0.26;100.00;99248.69;10361535;28;20066;-83
2022/01/27 13:42:30;;;;;;;15.25;8.13;;;;;;;0.33;100.00;99248.59;10364199;28;20041;-83
2022/01/27 13:47:35;;;;;;;19.23;9.40;;;;;;;0.33;100.00;99237.22;10367907;28;20065;-82
2022/01/27 13:52:58;;;;;;;16.17;8.05;;;;;;;0.21;100.00;99258.38;10398055;28;20097;-83
2022/01/27 13:58:03;;;;;;;19.92;9.05;;;;;;;0.16;100.00;99253.75;10401454;28;20126;-80
2022/01/27 14:03:14;;;;;;;18.55;9.63;;;;;;;0.15;100.00;99259.28;10353963;28;20106;-83
2022/01/27 14:09:21;;;;;;;21.48;9.27;;;;;;;0.02;100.00;99259.53;10358093;28;20062;-81
2022/01/27 14:14:42;;;;;;;21.45;9.50;;;;;;;0.07;100.00;99244.59;10383949;28;20105;-81
2022/01/27 14:19:43;;;;;;;21.73;10.18;;;;;;;-0.17;100.00;99243.00;10386731;28;20068;-82
2022/01/27 14:25:22;;;;;;;22.48;10.38;;;;;;;-0.11;100.00;99245.50;10393339;23;20053;-83
2022/01/27 14:30:25;;;;;;;22.42;11.35;;;;;;;0.07;100.00;99251.69;10397728;28;20383;-81
2022/01/27 14:35:59;;;;;;;26.23;11.90;;;;;;;0.16;100.00;99239.75;10390446;28;20053;-83
2022/01/27 14:41:03;;;;;;;22.63;10.50;;;;;;;0.27;100.00;99247.69;10417099;28;20079;-83
2022/01/27 14:46:54;;;;;;;24.77;11.40;;;;;;;0.35;100.00;99246.50;10390846;28;20152;-83
2022/01/27 14:52:24;;;;;;;25.30;11.48;;;;;;;0.31;100.00;99242.75;10420188;28;20064;-82
2022/01/27 14:57:38;;;;;;;24.02;11.07;;;;;;;0.31;100.00;99249.84;10421556;28;20067;-81
2022/01/27 15:02:49;;;;;;;24.80;11.80;;;;;;;0.34;100.00;99246.75;10427895;28;20041;-82
2022/01/27 15:07:53;;;;;;;22.55;11.35;;;;;;;0.40;100.00;99235.25;10437613;28;20058;-82
2022/01/27 15:12:56;;;;;;;27.33;13.32;;;;;;;0.43;100.00;99224.22;10422387;28;20057;-84
2022/01/27 15:23:20;;;;;;;23.58;12.07;;;;;;;0.43;100.00;99227.66;10389299;28;20152;-83
2022/01/27 15:28:41;;;;;;;26.13;12.07;;;;;;;0.57;100.00;99220.28;10451127;28;20060;-82
2022/01/27 15:33:45;;;;;;;25.30;11.82;;;;;;;0.55;100.00;99217.09;10440463;28;20109;-82
2022/01/27 15:38:49;;;;;;;23.08;11.73;;;;;;;0.62;100.00;99219.56;10418504;28;20139;-83
2022/01/27 15:43:52;;;;;;;22.17;11.45;;;;;;;0.67;100.00;99214.41;10435262;28;20053;-83
2022/01/27 15:49:01;;;;;;;28.47;12.47;;;;;;;0.78;100.00;99206.44;10402703;28;20065;-82
2022/01/27 15:54:08;;;;;;;22.75;11.15;;;;;;;0.92;100.00;99203.50;10423325;28;20061;-82
2022/01/27 15:59:11;;;;;;;23.13;11.60;;;;;;;0.87;100.00;99204.22;10424926;28;20053;-80
2022/01/27 16:04:24;;;;;;;20.75;11.05;;;;;;;1.09;100.00;99204.31;10399521;28;20115;-83
2022/01/27 16:09:45;;;;;;;22.67;11.18;;;;;;;1.06;100.00;99207.44;10417290;28;20112;-83
2022/01/27 16:14:59;;;;;;;26.40;10.98;;;;;;;1.06;100.00;99194.22;10389407;28;20113;-82
2022/01/27 16:19:59;;;;;;;21.65;11.88;;;;;;;1.02;100.00;99193.91;10454482;28;20047;-85
2022/01/27 16:25:01;;;;;;;27.00;11.90;;;;;;;1.12;100.00;99188.00;10440696;28;20045;-83
2022/01/27 16:30:34;;;;;;;23.67;11.33;;;;;;;1.08;100.00;99177.09;10431234;28;20103;-82
2022/01/27 16:36:01;;;;;;;27.77;12.40;;;;;;;1.04;100.00;99194.47;10397852;28;20080;-84
2022/01/27 16:41:12;;;;;;;28.73;14.30;;;;;;;0.99;100.00;99185.66;10439879;28;20041;-82
2022/01/27 16:46:19;;;;;;;30.33;14.60;;;;;;;0.88;100.00;99197.09;10411246;28;20632;-82
2022/01/27 16:52:25;;;;;;;31.52;15.38;;;;;;;0.94;100.00;99212.81;10393773;28;20114;-85
2022/01/27 16:57:36;;;;;;;28.33;13.77;;;;;;;0.99;100.00;99215.50;10322284;28;20104;-81
2022/01/27 17:02:56;;;;;;;27.30;12.48;;;;;;;0.95;100.00;99203.03;10402893;28;20052;-83
2022/01/27 17:08:20;;;;;;;27.55;13.45;;;;;;;0.97;100.00;99208.88;10421557;28;20057;-82
2022/01/27 17:13:24;;;;;;;27.38;13.85;;;;;;;0.97;100.00;99206.22;10411018;28;20045;-82
2022/01/27 17:18:25;;;;;;;;;;;;;;;1.02;100.00;99208.97;10427161;28;20053;-80
2022/01/27 17:23:35;;;;;;;26.38;13.60;;;;;;;1.07;100.00;99196.63;10450386;28;19909;-82
2022/01/27 17:28:43;;;;;;;29.58;13.88;;;;;;;1.05;100.00;99198.72;10444969;28;20041;-80
2022/01/27 17:33:53;;;;;;;25.48;12.88;;;;;;;1.15;100.00;99179.59;10435807;28;20121;-81
2022/01/27 17:39:02;;;;;;;24.57;12.00;;;;;;;1.19;100.00;99179.91;10429127;28;20049;-84
2022/01/27 17:44:14;;;;;;;25.38;11.88;;;;;;;1.09;100.00;99173.41;10425028;28;20316;-82
2022/01/27 17:49:27;;;;;;;30.70;15.18;;;;;;;1.25;100.00;99160.44;10409697;28;20073;-82
2022/01/27 17:54:50;;;;;;;23.75;12.43;;;;;;;1.26;100.00;99156.75;10388314;28;20072;-81
2022/01/27 17:59:53;;;;;;;20.80;10.25;;;;;;;1.15;100.00;99171.66;10394821;28;20334;-82
2022/01/27 18:04:55;;;;;;;17.38;9.98;;;;;;;1.23;100.00;99158.03;10418857;28;20089;-79
2022/01/27 18:09:59;;;;;;;19.50;9.82;;;;;;;1.31;100.00;99162.13;10412640;28;20069;-79
2022/01/27 18:15:10;;;;;;;21.25;11.40;;;;;;;1.26;100.00;99156.75;10404103;28;20050;-81
2022/01/27 18:20:15;;;;;;;17.27;9.35;;;;;;;1.26;100.00;99146.97;10435695;28;20065;-80
2022/01/27 18:25:55;;;;;;;19.65;9.98;;;;;;;1.21;100.00;99146.09;10585202;23;20050;-80
2022/01/27 18:30:56;;;;;;;18.27;9.90;;;;;;;1.24;100.00;99145.63;10342291;28;20060;-81
2022/01/27 18:35:58;;;;;;;17.95;8.88;;;;;;;1.39;100.00;99133.44;10372966;28;20046;-79
2022/01/27 18:40:59;;;;;;;18.13;9.70;;;;;;;1.36;100.00;99128.63;10389166;28;20057;-81
2022/01/27 18:46:04;;;;;;;16.00;8.95;;;;;;;1.43;100.00;99108.09;10407812;28;20056;-81
2022/01/27 18:51:07;;;;;;;13.02;7.85;;;;;;;1.39;100.00;99127.34;10373666;28;20050;-80
2022/01/27 18:56:09;;;;;;;15.80;9.20;;;;;;;1.37;100.00;99130.25;10391223;28;20061;-79
2022/01/27 19:01:10;;;;;;;14.77;7.93;;;;;;;1.46;100.00;99129.81;10392541;28;20125;-81
2022/01/27 19:06:30;;;;;;;13.07;8.50;;;;;;;1.45;100.00;99131.66;10395953;28;20580;-84
2022/01/27 19:11:32;;;;;;;12.45;7.90;;;;;;;1.53;100.00;99128.59;10330001;28;20050;-81
2022/01/27 19:16:36;;;;;;;12.88;7.60;;;;;;;1.51;100.00;99128.03;10349008;28;20783;-81
2022/01/27 19:21:38;;;;;;;13.57;7.90;;;;;;;1.58;100.00;99118.09;10355264;28;20038;-81
2022/01/27 19:26:43;;;;;;;;;;;;;;;1.59;100.00;99129.47;10394619;28;20053;-81
2022/01/27 19:31:46;;;;;;;12.27;7.88;;;;;;;1.63;100.00;99120.00;10377113;28;20364;-82
2022/01/27 19:36:58;;;;;;;12.55;7.28;;;;;;;1.66;100.00;99132.75;10338654;28;20080;-82
2022/01/27 19:42:04;;;;;;;13.18;8.05;;;;;;;1.59;100.00;99121.53;10393738;28;20051;-82
2022/01/27 19:47:10;;;;;;;13.50;8.88;;;;;;;1.66;100.00;99122.19;10371499;28;20045;-84
2022/01/27 19:52:33;;;;;;;13.82;8.65;;;;;;;1.71;100.00;99130.16;10350565;28;21355;-81
2022/01/27 19:57:55;;;;;;;15.98;8.98;;;;;;;1.75;100.00;99127.84;10366145;28;20061;-80
2022/01/27 20:03:19;;;;;;;15.13;8.63;;;;;;;1.67;100.00;99113.19;10356510;28;20088;-82
2022/01/27 20:08:21;;;;;;;17.65;9.32;;;;;;;1.73;100.00;99120.13;10377781;28;20068;-80
2022/01/27 20:13:35;;;;;;;14.45;8.90;;;;;;;1.70;100.00;99108.19;10368602;28;20109;-81
2022/01/27 20:18:41;;;;;;;15.25;9.68;;;;;;;1.87;100.00;99120.59;10397405;28;20097;-80
2022/01/27 20:23:46;;;;;;;19.52;10.07;;;;;;;1.88;100.00;99140.72;10389402;28;20052;-80
2022/01/27 20:28:53;;;;;;;16.48;10.25;;;;;;;1.88;100.00;99149.47;10392206;28;20038;-83
2022/01/27 20:33:54;;;;;;;17.08;10.02;;;;;;;1.86;100.00;99138.31;10369881;28;20053;-81
2022/01/27 20:38:55;;;;;;;17.45;9.75;;;;;;;1.82;100.00;99121.31;10385276;28;20038;-80
2022/01/27 20:44:01;;;;;;;14.60;9.33;;;;;;;1.85;100.00;99118.19;10357388;28;20054;-82
2022/01/27 20:49:05;;;;;;;15.50;8.73;;;;;;;1.85;100.00;99115.56;10352573;28;20394;-83
2022/01/27 20:54:05;;;;;;;16.33;9.60;;;;;;;1.87;100.00;99121.41;10385291;28;20058;-81
2022/01/27 20:59:13;;;;;;;17.92;10.00;;;;;;;2.00;100.00;99121.03;10385179;28;20053;-80
2022/01/27 21:04:15;;;;;;;15.18;10.07;;;;;;;1.99;100.00;99127.38;10398418;28;20097;-80
2022/01/27 21:09:20;;;;;;;15.70;9.18;;;;;;;2.08;100.00;99127.75;10403821;28;20056;-79
2022/01/27 21:14:24;;;;;;;15.18;9.23;;;;;;;2.03;100.00;99127.69;10400629;28;20039;-79
2022/01/27 21:19:26;;;;;;;15.55;9.45;;;;;;;2.00;100.00;99128.97;10363103;28;20477;-80
2022/01/27 21:24:29;;;;;;;14.17;10.07;;;;;;;2.15;100.00;99141.59;10363749;28;20049;-80
2022/01/27 21:29:52;;;;;;;14.30;8.27;;;;;;;2.08;100.00;99156.88;10359992;28;20299;-80
2022/01/27 21:34:56;;;;;;;14.93;9.35;;;;;;;1.98;100.00;99154.88;10357409;28;20513;-82
2022/01/27 21:40:21;;;;;;;13.77;9.57;;;;;;;1.87;100.00;99161.09;10372951;28;20078;-80
2022/01/27 21:45:26;;;;;;;16.48;9.73;;;;;;;1.94;100.00;99177.63;10356306;28;20069;-80
2022/01/27 21:50:31;;;;;;;13.23;8.60;;;;;;;1.96;100.00;99164.94;10380834;28;20054;-79
2022/01/27 21:55:31;;;;;;;13.48;8.98;;;;;;;1.96;100.00;99162.28;10353403;28;20042;-80
2022/01/27 22:00:33;;;;;;;13.98;8.43;;;;;;;1.95;100.00;99162.53;10358526;28;20021;-81
2022/01/27 22:05:36;;;;;;;14.27;8.98;;;;;;;1.86;100.00;99164.00;10348590;28;20119;-79
2022/01/27 22:10:39;;;;;;;13.77;8.90;;;;;;;1.83;100.00;99154.72;10380315;28;20095;-84
2022/01/27 22:15:41;;;;;;;13.98;9.75;;;;;;;1.96;100.00;99170.22;10360020;28;20038;-80
2022/01/27 22:20:41;;;;;;;14.23;9.10;;;;;;;1.94;100.00;99159.09;10350574;28;20053;-79
2022/01/27 22:25:46;;;;;;;13.07;8.65;;;;;;;1.99;100.00;99159.13;10373895;28;20068;-81
2022/01/27 22:30:47;;;;;;;12.20;8.45;;;;;;;2.10;100.00;99170.66;10393789;28;20403;-81
2022/01/27 22:35:49;;;;;;;12.45;8.55;;;;;;;2.18;100.00;99170.22;10360452;28;20137;-82
2022/01/27 22:40:57;;;;;;;10.47;8.30;;;;;;;2.04;100.00;99178.78;10378398;28;20093;-81
2022/01/27 22:46:33;;;;;;;12.18;7.82;;;;;;;2.09;100.00;99189.44;10387561;28;20038;-79
2022/01/27 22:51:34;;;;;;;11.88;8.30;;;;;;;2.12;100.00;99196.91;10402660;28;20046;-79
2022/01/27 22:56:35;;;;;;;11.55;8.05;;;;;;;2.10;100.00;99213.03;10378328;28;20061;-78
2022/01/27 23:01:43;;;;;;;12.57;8.45;;;;;;;2.15;100.00;99218.41;10367030;28;20120;-80
2022/01/27 23:06:49;;;;;;;11.90;8.63;;;;;;;2.19;100.00;99237.22;10365329;28;20051;-79
2022/01/27 23:12:06;;;;;;;14.30;8.52;;;;;;;2.23;100.00;99249.75;10377975;28;20045;-80
2022/01/27 23:22:28;;;;;;;12.00;8.10;;;;;;;2.11;100.00;99250.91;10376535;28;20474;-82
2022/01/27 23:27:29;;;;;;;12.60;8.00;;;;;;;2.05;100.00;99260.63;10356524;28;20046;-79
2022/01/27 23:32:31;;;;;;;13.65;8.23;;;;;;;1.96;100.00;99264.72;10369603;28;20045;-77
2022/01/27 23:43:28;;;;;;;14.75;8.40;;;;;;;1.85;100.00;99274.38;10336198;28;20057;-80
2022/01/27 23:48:44;;;;;;;14.30;9.10;;;;;;;1.79;100.00;99266.56;10364174;28;20054;-79
2022/01/27 23:54:04;;;;;;;13.02;8.90;;;;;;;1.83;100.00;99286.22;10360752;28;20081;-80
2022/01/27 23:59:10;;;;;;;12.55;8.82;;;;;;;1.89;100.00;99274.66;10372428;28;20078;-79
